San Fernando, Spain
Current Conditions -  °F | °C
As of 4:00 AM on Saturday 29 Nov 2014 (Local Time) from LERT Reporting Station
Scattered Clouds Scattered Clouds  
Wind Chill: 13°   Ceiling: Unl
Heat Index: 13°   Visibility: 6mi
Dew Point: 10°   Wind: 12mph
Humidity: 82%   Direction: 110°ESE
Pressure: 29.21"   Gusts: NA
Location:  36.48°N, 6.2°W
Report Text: LERT 290300Z 11010KT 070V130 9999 SCT040 13/10 Q0989 TEMPO 4000 SHRA SCT020TCU
Loading
Personal Weather Stations






























Interactive Weather Map New forecast layout! Learn more

10-Day Weather Forecast

Advertisements
Track Severe Weather on mobile